Time;durP1;ratioP1;P1;durP2;ratioP2;P2;SDS_P1;SDS_P2;PMS_P1;PMS_P2;Temp;Humidity;BMP_temperature;BMP_pressure;BME280_temperature;BME280_humidity;BME280_pressure;Samples;Min_cycle;Max_cycle;Signal;HPM_P1;HPM_P2
2023/02/20 00:00:31;;;;;;;;;20.25;18.75;;;;;22.48;38.25;102329.81;5075471;28;45365;-76
2023/02/20 00:02:57;;;;;;;;;23.75;19.25;;;;;22.46;38.19;102326.38;5057740;28;45505;-76
2023/02/20 00:05:22;;;;;;;;;15.00;11.50;;;;;22.46;38.09;102328.19;5071670;27;49269;-77
2023/02/20 00:07:48;;;;;;;;;25.00;18.00;;;;;22.41;38.35;102319.56;5061324;28;45987;-76
2023/02/20 00:10:14;;;;;;;;;20.25;17.50;;;;;22.44;38.22;102317.59;5064803;28;45482;-76
2023/02/20 00:12:39;;;;;;;;;19.00;18.50;;;;;22.42;38.06;102315.97;5077609;27;45344;-76
2023/02/20 00:15:05;;;;;;;;;20.00;18.75;;;;;22.44;38.23;102319.41;5074372;27;47273;-76
2023/02/20 00:17:31;;;;;;;;;20.75;16.00;;;;;22.37;37.71;102310.84;5063055;28;47551;-76
2023/02/20 00:19:56;;;;;;;;;17.50;14.50;;;;;22.44;38.35;102304.25;5086230;27;45350;-76
2023/02/20 00:22:23;;;;;;;;;19.50;17.25;;;;;22.45;38.16;102319.34;5047518;28;65776;-76
2023/02/20 00:24:51;;;;;;;;;21.50;18.25;;;;;22.41;37.80;102298.22;5061411;28;45436;-77
2023/02/20 00:27:20;;;;;;;;;22.50;19.50;;;;;22.41;38.11;102293.75;5074378;28;45503;-77
2023/02/20 00:29:46;;;;;;;;;22.50;17.00;;;;;22.41;37.90;102296.41;5069483;27;45350;-77
2023/02/20 00:32:12;;;;;;;;;23.00;17.50;;;;;22.44;37.66;102304.25;5075030;27;45291;-77
2023/02/20 00:34:37;;;;;;;;;16.50;13.75;;;;;22.40;38.04;102294.69;5072734;27;45718;-76
2023/02/20 00:37:03;;;;;;;;;20.00;15.50;;;;;22.34;37.56;102287.00;5078621;27;47302;-76
2023/02/20 00:39:28;;;;;;;;;23.00;18.75;;;;;22.43;37.91;102302.53;5063351;28;45462;-76
2023/02/20 00:41:59;;;;;;;;;15.50;15.25;;;;;22.40;37.56;102299.16;5072059;27;45648;-76
2023/02/20 00:44:25;;;;;;;;;18.75;16.75;;;;;22.25;37.62;102276.78;5057622;28;45257;-77
2023/02/20 00:46:53;;;;;;;;;15.50;13.25;;;;;22.44;37.70;102308.75;5056089;28;45427;-76
2023/02/20 00:49:19;;;;;;;;;17.75;15.25;;;;;22.30;38.02;102286.31;5072290;27;45902;-76
2023/02/20 00:51:44;;;;;;;;;21.75;16.75;;;;;22.43;37.63;102312.34;5066749;28;45494;-77
2023/02/20 00:54:09;;;;;;;;;18.50;16.50;;;;;22.30;37.59;102280.13;5072202;27;46397;-76
2023/02/20 00:56:35;;;;;;;;;17.75;15.50;;;;;22.40;37.76;102291.16;5064433;27;69371;-77
2023/02/20 00:59:00;;;;;;;;;15.00;11.50;;;;;22.42;37.87;102297.28;5068370;28;52583;-76
2023/02/20 01:01:26;;;;;;;;;21.25;15.50;;;;;22.35;37.66;102286.94;5076187;27;55596;-76
2023/02/20 01:03:51;;;;;;;;;17.25;12.75;;;;;22.35;37.52;102286.94;5062582;28;45597;-76
2023/02/20 01:06:17;;;;;;;;;14.75;13.75;;;;;22.37;37.66;102287.72;5064277;28;48020;-77
2023/02/20 01:08:45;;;;;;;;;17.50;13.75;;;;;22.39;37.83;102292.13;5063721;28;59969;-76
2023/02/20 01:11:11;;;;;;;;;16.75;12.75;;;;;22.26;37.48;102270.53;5073208;28;45373;-76
2023/02/20 01:13:36;;;;;;;;;14.25;12.75;;;;;22.39;37.51;102295.63;5066016;27;45488;-76
2023/02/20 01:16:03;;;;;;;;;13.75;12.00;;;;;22.39;37.49;102295.63;5057213;28;48760;-76
2023/02/20 01:18:28;;;;;;;;;14.75;13.00;;;;;22.31;37.28;102282.72;5068458;28;46084;-76
2023/02/20 01:20:54;;;;;;;;;14.75;12.75;;;;;22.37;37.41;102295.72;5074516;28;45419;-76
2023/02/20 01:23:19;;;;;;;;;14.50;13.00;;;;;22.29;37.24;102281.94;5059867;28;45483;-76
2023/02/20 01:25:44;;;;;;;;;15.50;13.00;;;;;22.34;37.35;102282.53;5076917;27;46107;-76
2023/02/20 01:28:10;;;;;;;;;10.50;8.75;;;;;22.27;37.50;102277.59;5067211;27;51032;-76
2023/02/20 01:30:35;;;;;;;;;15.00;12.75;;;;;22.33;37.56;102286.16;5065366;28;54001;-76
2023/02/20 01:33:00;;;;;;;;;11.25;10.00;;;;;22.36;37.37;102288.66;5069170;27;61907;-76
2023/02/20 01:35:29;;;;;;;;;15.00;10.25;;;;;22.32;37.21;102280.88;5078150;27;46140;-76
2023/02/20 01:37:55;;;;;;;;;11.25;10.50;;;;;22.36;37.15;102288.66;5074866;27;46205;-76
2023/02/20 01:40:22;;;;;;;;;13.75;12.00;;;;;22.33;37.21;102279.97;5075295;28;45339;-76
2023/02/20 01:42:48;;;;;;;;;12.00;10.00;;;;;22.31;37.17;102281.81;5069096;27;45493;-75
2023/02/20 01:45:37;;;;;;;;;11.25;11.25;;;;;22.34;37.27;102289.66;5062879;28;46264;-76
2023/02/20 01:48:03;;;;;;;;;12.75;11.00;;;;;22.33;37.42;102294.16;5066936;27;45517;-76
2023/02/20 01:50:37;;;;;;;;;15.50;10.50;;;;;22.33;37.43;102299.50;5094302;27;45343;-76
2023/02/20 01:53:10;;;;;;;;;15.25;12.25;;;;;22.30;37.59;102290.78;5089428;27;45466;-76
2023/02/20 01:55:57;;;;;;;;;10.50;9.75;;;;;22.32;37.23;102299.56;5089610;27;46551;-76
2023/02/20 01:58:35;;;;;;;;;13.50;9.25;;;;;22.29;37.37;102303.25;5078387;27;45763;-75
2023/02/20 02:01:02;;;;;;;;;15.00;10.50;;;;;22.30;37.36;102304.97;5078313;27;45267;-76
2023/02/20 02:03:31;;;;;;;;;10.75;9.00;;;;;22.27;37.42;102309.59;5062213;28;45601;-77
2023/02/20 02:06:02;;;;;;;;;9.75;8.00;;;;;22.27;37.53;102306.94;5080728;27;46899;-76
2023/02/20 02:08:28;;;;;;;;;12.50;12.00;;;;;22.25;37.62;102303.47;5102371;27;45415;-76
2023/02/20 02:11:14;;;;;;;;;10.00;8.25;;;;;22.31;37.36;102314.72;5081674;27;45377;-77
2023/02/20 02:13:41;;;;;;;;;9.25;8.75;;;;;22.30;37.20;102307.63;5068408;28;45469;-76
2023/02/20 02:16:25;;;;;;;;;10.50;8.50;;;;;22.29;36.98;102305.94;5079135;27;46347;-76
2023/02/20 02:18:50;;;;;;;;;9.00;8.50;;;;;22.29;37.10;102292.59;5079110;27;45406;-76
2023/02/20 02:21:34;;;;;;;;;11.00;7.33;;;;;22.29;37.22;102295.25;5077256;27;45438;-75
2023/02/20 02:24:34;;;;;;;;;10.25;8.50;;;;;22.29;37.18;102291.72;5070608;27;45364;-76
2023/02/20 02:27:19;;;;;;;;;12.00;8.75;;;;;22.28;36.85;102282.84;5073661;27;45340;-76
2023/02/20 02:30:17;;;;;;;;;9.50;8.00;;;;;22.27;37.02;102278.44;5048191;27;45460;-76
2023/02/20 02:33:13;;;;;;;;;10.50;9.75;;;;;22.27;36.82;102274.94;5063932;27;45767;-76
2023/02/20 02:36:15;;;;;;;;;10.00;9.00;;;;;22.27;36.95;102274.94;5080367;27;45518;-76
2023/02/20 02:39:12;;;;;;;;;11.00;9.00;;;;;22.25;37.18;102260.78;5078168;27;46997;-76
2023/02/20 02:41:37;;;;;;;;;11.25;9.75;;;;;22.26;36.80;102259.84;5075085;27;45548;-76
2023/02/20 02:44:15;;;;;;;;;11.25;8.50;;;;;22.26;36.88;102254.53;5069748;28;45352;-76
2023/02/20 02:46:46;;;;;;;;;11.00;10.00;;;;;22.24;36.60;102254.59;5079053;27;45501;-76
2023/02/20 02:49:36;;;;;;;;;9.00;8.00;;;;;22.26;37.24;102251.84;5074009;27;45509;-76
2023/02/20 02:52:02;;;;;;;;;10.00;8.25;;;;;22.25;36.78;102248.31;5073484;27;45587;-76
2023/02/20 02:54:27;;;;;;;;;9.75;7.00;;;;;22.20;37.22;102237.00;5060552;27;45552;-76
2023/02/20 02:57:15;;;;;;;;;13.00;11.00;;;;;22.25;36.78;102250.97;5062063;28;45247;-76
2023/02/20 02:59:41;;;;;;;;;10.25;9.00;;;;;22.22;36.74;102245.78;5074789;27;46076;-76
2023/02/20 03:02:11;;;;;;;;;15.25;9.25;;;;;22.21;36.76;102246.75;5078985;27;45748;-75
2023/02/20 03:04:37;;;;;;;;;9.00;8.25;;;;;22.20;37.15;102237.00;5061419;28;45296;-76
2023/02/20 03:07:07;;;;;;;;;12.00;10.00;;;;;22.16;36.71;102233.66;5072304;27;55357;-75
2023/02/20 03:09:36;;;;;;;;;11.00;8.00;;;;;22.17;37.02;102240.72;5059482;27;47338;-75
2023/02/20 03:12:03;;;;;;;;;12.25;9.00;;;;;22.18;36.82;102228.22;5065717;28;45659;-75
2023/02/20 03:18:09;;;;;;;;;10.75;9.00;;;;;22.20;37.12;102226.34;5066351;27;45375;-75
2023/02/20 03:20:36;;;;;;;;;11.00;8.00;;;;;22.22;36.90;102227.13;5033055;28;47310;-75
2023/02/20 03:23:03;;;;;;;;;10.00;9.25;;;;;22.19;37.11;102225.50;5056939;28;45792;-76
2023/02/20 03:25:31;;;;;;;;;11.75;8.50;;;;;22.22;36.46;102229.78;5056179;27;45362;-76
2023/02/20 03:27:59;;;;;;;;;11.50;9.25;;;;;22.17;36.54;102219.38;5074246;27;45584;-75
2023/02/20 03:30:44;;;;;;;;;11.75;9.00;;;;;22.21;36.70;102217.41;5071659;27;45463;-76
2023/02/20 03:44:19;;;;;;;;;7.00;7.00;;;;;22.19;37.06;102197.97;5076881;27;45435;-75
2023/02/20 03:46:47;;;;;;;;;10.50;6.75;;;;;22.15;36.76;102191.94;5076043;27;45402;-75
2023/02/20 03:49:15;;;;;;;;;8.50;7.75;;;;;22.18;36.72;102188.25;5056079;28;67227;-75
2023/02/20 03:51:56;;;;;;;;;11.00;8.25;;;;;22.19;36.55;102188.16;5073781;27;45804;-75
2023/02/20 03:54:22;;;;;;;;;10.50;7.75;;;;;22.17;36.75;102187.38;5061257;27;46693;-75
2023/02/20 03:56:51;;;;;;;;;7.00;7.00;;;;;22.13;36.53;102182.28;5064862;27;45423;-75
2023/02/20 03:59:57;;;;;;;;;10.75;7.25;;;;;22.20;36.36;102197.00;5064390;27;45606;-75
2023/02/20 04:02:26;;;;;;;;;6.00;4.25;;;;;22.20;36.42;102194.34;5039628;28;47287;-75
2023/02/20 04:04:55;;;;;;;;;9.75;6.75;;;;;22.19;36.36;102200.63;5062398;27;45245;-76
2023/02/20 04:07:27;;;;;;;;;7.75;7.75;;;;;22.16;36.97;102182.97;5073001;27;45485;-76
2023/02/20 04:09:54;;;;;;;;;7.75;7.25;;;;;22.19;36.25;102181.97;5067988;27;47493;-75
2023/02/20 04:12:30;;;;;;;;;5.25;5.25;;;;;22.17;36.87;102179.38;5074237;27;46189;-75
2023/02/20 04:14:57;;;;;;;;;7.25;6.00;;;;;22.13;36.48;102167.16;5073612;27;45697;-75
2023/02/20 04:17:30;;;;;;;;;7.50;6.00;;;;;22.13;36.55;102169.84;5066336;27;46115;-75
2023/02/20 04:19:56;;;;;;;;;6.00;5.50;;;;;22.14;36.43;102176.03;5072991;27;45426;-75
2023/02/20 04:22:28;;;;;;;;;6.50;5.00;;;;;22.18;36.39;102181.09;5070406;27;45329;-75
2023/02/20 04:25:12;;;;;;;;;7.75;5.75;;;;;22.18;36.79;102174.91;5077671;27;45526;-75
2023/02/20 04:27:37;;;;;;;;;6.00;4.00;;;;;22.14;36.42;102166.22;5072668;27;45457;-75
2023/02/20 04:30:04;;;;;;;;;7.75;5.00;;;;;22.17;36.30;102179.38;5058900;28;53906;-76
2023/02/20 04:32:29;;;;;;;;;8.25;6.00;;;;;22.15;36.70;102181.28;5068733;27;46376;-76
2023/02/20 04:35:04;;;;;;;;;6.25;5.00;;;;;22.15;36.22;102175.94;5068350;27;49601;-76
2023/02/20 04:37:29;;;;;;;;;9.00;7.00;;;;;22.12;36.60;102175.25;5066666;28;45240;-76
2023/02/20 04:39:54;;;;;;;;;7.00;6.00;;;;;22.14;36.17;102178.69;5067466;28;61269;-76
2023/02/20 04:42:20;;;;;;;;;6.00;5.25;;;;;22.15;36.19;102183.94;5060796;28;47144;-76
2023/02/20 04:44:45;;;;;;;;;9.25;6.75;;;;;22.15;36.69;102177.72;5065738;27;61312;-75
2023/02/20 04:47:14;;;;;;;;;9.25;6.00;;;;;22.11;36.57;102170.84;5068348;27;45355;-76
2023/02/20 04:49:40;;;;;;;;;4.75;4.50;;;;;21.99;36.27;102148.34;5067367;27;45367;-76
2023/02/20 04:52:05;;;;;;;;;6.00;5.00;;;;;22.02;36.56;102152.66;5069343;27;47554;-76
2023/02/20 04:54:30;;;;;;;;;5.75;4.00;;;;;22.11;36.27;102177.03;5075962;27;45435;-76
2023/02/20 04:56:56;;;;;;;;;7.00;5.00;;;;;21.95;36.46;102150.31;5073755;27;51744;-76
2023/02/20 04:59:21;;;;;;;;;6.25;6.25;;;;;22.14;36.25;102176.88;5069804;27;45566;-75
2023/02/20 05:01:48;;;;;;;;;5.50;4.00;;;;;21.88;36.67;102138.25;5068991;27;46270;-76
2023/02/20 05:04:23;;;;;;;;;5.00;5.00;;;;;21.94;36.42;102143.28;5084266;27;45531;-76
2023/02/20 05:06:53;;;;;;;;;5.50;4.25;;;;;22.15;36.68;102181.28;5054814;28;45487;-76
2023/02/20 05:09:23;;;;;;;;;5.75;5.00;;;;;22.16;36.27;102179.47;5055653;28;45543;-76
2023/02/20 05:11:51;;;;;;;;;5.00;5.00;;;;;22.02;36.47;102158.00;5056868;28;45866;-76
2023/02/20 05:14:23;;;;;;;;;3.25;3.00;;;;;22.14;36.31;102171.53;5075036;27;45915;-76
2023/02/20 05:16:50;;;;;;;;;7.75;6.00;;;;;21.88;36.06;102135.59;5067763;27;45411;-75
2023/02/20 05:19:27;;;;;;;;;5.25;4.75;;;;;22.04;36.41;102156.97;5064862;27;45546;-75
2023/02/20 05:24:53;;;;;;;;;5.00;3.75;;;;;22.13;36.35;102166.28;5076343;27;45753;-76
2023/02/20 05:27:23;;;;;;;;;4.00;2.00;;;;;22.10;36.11;102156.66;5052416;28;45457;-75
2023/02/20 05:29:54;;;;;;;;;9.00;4.00;;;;;22.07;36.39;102156.81;5060376;28;45798;-75
2023/02/20 05:32:24;;;;;;;;;5.25;4.00;;;;;22.01;36.04;102143.81;5070341;27;45391;-75
2023/02/20 05:34:50;;;;;;;;;5.25;3.75;;;;;21.91;36.24;102123.91;5064011;27;45466;-75
2023/02/20 05:37:19;;;;;;;;;2.75;2.75;;;;;22.00;36.57;102142.94;5076544;27;45481;-75
2023/02/20 05:39:45;;;;;;;;;5.00;5.00;;;;;22.10;36.60;102154.00;5078315;27;45465;-75
2023/02/20 05:42:11;;;;;;;;;6.25;4.25;;;;;22.02;35.85;102136.69;5072623;27;46122;-75
2023/02/20 05:44:37;;;;;;;;;7.25;4.25;;;;;22.11;36.04;102145.03;5051355;27;59670;-75
2023/02/20 05:47:03;;;;;;;;;5.25;4.00;;;;;22.10;36.41;102143.31;5069073;27;45471;-75
2023/02/20 05:49:28;;;;;;;;;6.25;2.50;;;;;22.10;36.10;102154.00;5104271;27;45428;-75
2023/02/20 05:51:57;;;;;;;;;7.75;5.50;;;;;22.08;36.13;102144.34;5074712;27;45451;-75
2023/02/20 05:54:23;;;;;;;;;4.75;4.75;;;;;22.09;36.40;102143.41;5077664;27;45897;-76
2023/02/20 05:56:49;;;;;;;;;5.75;3.25;;;;;22.10;36.26;102147.81;5072510;27;45393;-76
2023/02/20 05:59:18;;;;;;;;;3.75;3.50;;;;;22.09;36.17;102140.75;5069003;27;45347;-75
2023/02/20 06:01:50;;;;;;;;;5.75;4.25;;;;;22.05;36.17;102139.19;5069604;27;46490;-75
2023/02/20 06:04:15;;;;;;;;;6.00;4.00;;;;;22.04;36.22;102143.63;5068807;27;45304;-75
2023/02/20 06:06:41;;;;;;;;;5.25;4.25;;;;;22.07;36.25;102153.28;5079930;27;59728;-75
2023/02/20 06:09:09;;;;;;;;;4.25;3.00;;;;;22.05;36.00;102152.53;5064165;28;45579;-75
2023/02/20 06:11:35;;;;;;;;;6.00;4.50;;;;;22.04;36.41;102148.13;5076166;27;45466;-75
2023/02/20 06:14:00;;;;;;;;;5.00;3.00;;;;;22.01;37.30;102151.81;5073556;27;45446;-78
2023/02/20 06:16:27;;;;;;;;;6.00;5.00;;;;;21.99;37.27;102151.91;5062531;27;45323;-81
2023/02/20 06:18:53;;;;;;;;;5.75;4.25;;;;;21.99;36.86;102159.91;5058573;28;45847;-80
2023/02/20 06:21:22;;;;;;;;;5.25;4.50;;;;;21.94;37.26;102153.94;5053747;28;47256;-85
2023/02/20 06:23:48;;;;;;;;;5.00;5.00;;;;;21.85;37.20;102150.88;5086107;27;45902;-73
2023/02/20 06:26:15;;;;;;;;;7.75;5.75;;;;;21.83;36.76;102161.59;5050998;28;45419;-75
2023/02/20 06:28:40;;;;;;;;;7.25;7.00;;;;;21.77;36.97;102159.28;5071355;27;45472;-75
2023/02/20 06:31:07;;;;;;;;;9.25;7.50;;;;;21.66;36.91;102146.50;5063079;27;45364;-75
2023/02/20 06:33:32;;;;;;;;;7.75;5.00;;;;;21.66;36.98;102153.66;5070006;27;45410;-75
2023/02/20 06:35:58;;;;;;;;;4.50;4.50;;;;;21.63;36.93;102159.97;5067839;27;45477;-77
2023/02/20 06:38:23;;;;;;;;;8.50;4.25;;;;;21.54;36.59;102150.66;5074089;27;45202;-75
2023/02/20 06:40:51;;;;;;;;;7.25;6.00;;;;;21.57;37.04;102162.97;5077365;27;48267;-73
2023/02/20 06:43:16;;;;;;;;;6.25;5.00;;;;;21.51;36.62;102160.59;5068282;27;45732;-73
2023/02/20 06:45:42;;;;;;;;;7.75;6.50;;;;;21.50;37.13;102169.56;5045159;27;45526;-73
2023/02/20 06:48:08;;;;;;;;;10.25;5.75;;;;;21.45;36.91;102158.22;5064518;27;52673;-74
2023/02/20 06:50:34;;;;;;;;;7.75;5.00;;;;;21.38;36.96;102158.53;5086831;27;46413;-72
2023/02/20 06:52:59;;;;;;;;;7.25;6.25;;;;;21.40;36.41;102175.28;5064826;28;45402;-74
2023/02/20 06:55:25;;;;;;;;;7.25;5.50;;;;;21.36;36.42;102163.06;5075522;27;45573;-73
2023/02/20 06:57:50;;;;;;;;;9.75;6.00;;;;;21.30;36.35;102162.50;5059179;28;53390;-75
2023/02/20 07:00:16;;;;;;;;;10.50;6.75;;;;;21.33;36.88;102163.22;5083015;27;46333;-73
2023/02/20 07:02:42;;;;;;;;;6.25;4.25;;;;;21.33;36.98;102154.38;5056466;27;45484;-72
2023/02/20 07:05:09;;;;;;;;;6.25;2.75;;;;;21.37;37.14;102153.25;5063236;28;46385;-72
2023/02/20 07:07:35;;;;;;;;;5.00;3.00;;;;;21.41;37.89;102152.19;5059403;27;45624;-72
2023/02/20 07:10:00;;;;;;;;;7.25;3.00;;;;;21.48;37.43;102153.66;5066693;27;64430;-72
2023/02/20 07:12:32;;;;;;;;;5.25;3.50;;;;;21.52;37.69;102159.69;5065439;27;45558;-72
2023/02/20 07:14:58;;;;;;;;;6.00;4.50;;;;;21.56;37.41;102163.91;5074034;27;45436;-72
2023/02/20 07:17:24;;;;;;;;;3.50;3.00;;;;;21.57;37.97;102160.31;5067503;28;45583;-71
2023/02/20 07:19:50;;;;;;;;;4.00;4.00;;;;;21.56;37.83;102161.22;5051297;28;46936;-72
2023/02/20 07:22:15;;;;;;;;;4.00;2.50;;;;;21.63;37.93;102167.97;5072298;27;45573;-72
2023/02/20 07:24:41;;;;;;;;;6.50;3.00;;;;;21.65;37.95;102171.41;5106080;27;45604;-72
2023/02/20 07:27:09;;;;;;;;;4.50;3.50;;;;;21.66;38.49;102172.31;5059058;27;45252;-72
2023/02/20 07:29:40;;;;;;;;;4.00;3.00;;;;;21.70;38.39;102174.72;5055858;28;46979;-72
2023/02/20 07:32:07;;;;;;;;;5.00;3.00;;;;;21.70;38.36;102172.03;5084636;27;45822;-72
2023/02/20 07:34:32;;;;;;;;;6.00;3.00;;;;;21.78;38.25;102179.66;5077297;27;45261;-72
2023/02/20 07:36:58;;;;;;;;;3.00;3.00;;;;;21.79;38.77;102181.38;5071252;27;68109;-72
2023/02/20 07:39:26;;;;;;;;;5.75;3.00;;;;;21.83;38.89;102184.75;5105307;27;50474;-72
2023/02/20 07:41:51;;;;;;;;;3.00;3.00;;;;;21.86;38.96;102182.78;5062374;28;45398;-72
2023/02/20 07:44:16;;;;;;;;;7.75;5.00;;;;;21.88;38.92;102188.03;5083940;27;67255;-72
2023/02/20 07:46:42;;;;;;;;;6.00;3.00;;;;;21.93;38.95;102189.53;5061463;28;62143;-72
2023/02/20 07:49:07;;;;;;;;;6.25;4.50;;;;;21.96;38.64;102192.03;5082799;27;47769;-72
2023/02/20 07:51:33;;;;;;;;;4.75;3.75;;;;;21.99;38.45;102193.66;5077384;27;62577;-72
2023/02/20 07:53:58;;;;;;;;;4.25;4.25;;;;;22.02;38.66;102201.50;5073842;28;53108;-72
2023/02/20 07:56:23;;;;;;;;;6.00;4.00;;;;;22.02;38.38;102196.19;5081878;27;60703;-72
2023/02/20 07:59:00;;;;;;;;;7.00;4.50;;;;;22.05;38.83;102203.16;5053371;28;64291;-72
2023/02/20 08:01:25;;;;;;;;;4.50;3.75;;;;;22.02;38.79;102187.31;5070470;28;45596;-72
2023/02/20 08:03:50;;;;;;;;;10.25;5.75;;;;;22.11;38.84;102197.50;5068850;27;45385;-72
2023/02/20 08:06:17;;;;;;;;;5.00;4.25;;;;;22.11;38.95;102195.69;5055957;28;55200;-72
2023/02/20 08:08:47;;;;;;;;;5.25;4.50;;;;;22.16;38.79;102209.66;5053750;28;45630;-72
2023/02/20 08:11:12;;;;;;;;;5.75;5.00;;;;;22.17;38.93;102199.88;5076593;28;45798;-72
2023/02/20 08:13:37;;;;;;;;;7.50;4.50;;;;;22.18;38.80;102205.09;5058874;28;45517;-72
2023/02/20 08:16:03;;;;;;;;;3.50;3.00;;;;;22.22;38.55;102202.28;5059874;27;45603;-72
2023/02/20 08:18:28;;;;;;;;;6.50;4.25;;;;;22.21;38.64;102200.56;5065222;27;47026;-72
2023/02/20 08:20:54;;;;;;;;;5.75;5.75;;;;;22.24;38.69;102209.25;5067848;27;54339;-71
2023/02/20 08:23:21;;;;;;;;;6.25;5.50;;;;;22.29;39.54;102219.69;5061815;28;45486;-76
2023/02/20 08:25:47;;;;;;;;;7.00;5.50;;;;;22.34;39.25;102212.31;5073605;27;45375;-73
2023/02/20 08:28:12;;;;;;;;;9.00;6.50;;;;;22.35;39.28;102214.91;5062454;27;46201;-77
2023/02/20 08:30:39;;;;;;;;;6.75;6.25;;;;;22.37;39.71;102210.34;5062864;28;45292;-75
2023/02/20 08:33:05;;;;;;;;;8.00;5.50;;;;;22.45;39.81;102209.06;5058227;28;45347;-74
2023/02/20 08:35:35;;;;;;;;;13.25;9.00;;;;;22.39;40.83;102212.94;5057757;27;45630;-68
2023/02/20 08:38:04;;;;;;;;;10.50;8.75;;;;;22.44;40.29;102207.38;5077154;27;46629;-71
2023/02/20 08:40:30;;;;;;;;;12.50;9.00;;;;;22.45;40.50;102217.97;5068368;27;45521;-66
2023/02/20 08:44:55;;;;;;;;;12.75;9.50;;;;;22.44;40.63;102216.22;5068310;28;45493;-67
2023/02/20 08:47:22;;;;;;;;;13.00;9.00;;;;;22.44;40.61;102218.03;5048112;27;66770;-65
2023/02/20 08:49:47;;;;;;;;;9.25;7.75;;;;;22.43;40.58;102216.31;5048493;27;45500;-62
2023/02/20 08:52:13;;;;;;;;;11.75;8.00;;;;;22.40;41.06;102209.34;5050143;28;47858;-64
2023/02/20 08:54:38;;;;;;;;;10.50;7.75;;;;;22.36;40.80;102211.31;5026276;28;63466;-66
2023/02/20 08:57:03;;;;;;;;;17.00;10.00;;;;;22.39;41.14;102214.75;5048170;27;45356;-65
2023/02/20 08:59:31;;;;;;;;;11.50;8.00;;;;;22.37;41.24;102213.03;5019137;27;54730;-71
2023/02/20 09:01:56;;;;;;;;;9.25;7.25;;;;;22.49;41.16;102216.00;5033993;27;45231;-77
2023/02/20 09:04:22;;;;;;;;;11.50;8.00;;;;;22.65;40.72;102208.88;5051720;28;59144;-75
2023/02/20 09:06:48;;;;;;;;;11.00;7.75;;;;;22.82;41.04;102205.25;5051595;27;45431;-76
2023/02/20 09:09:13;;;;;;;;;9.75;8.75;;;;;22.99;40.40;102200.81;5034622;27;56365;-75
2023/02/20 09:11:38;;;;;;;;;7.75;7.75;;;;;23.27;40.29;102209.00;5034347;27;45350;-73
2023/02/20 09:14:04;;;;;;;;;10.25;7.25;;;;;23.44;40.08;102208.03;5034275;27;67720;-78
2023/02/20 09:16:29;;;;;;;;;8.00;5.75;;;;;23.65;39.42;102213.06;5033667;28;67232;-76
2023/02/20 09:18:54;;;;;;;;;9.00;7.75;;;;;23.84;39.18;102205.69;5048393;27;45447;-74
2023/02/20 09:21:20;;;;;;;;;7.25;7.00;;;;;24.04;38.88;102206.31;5054368;27;68332;-72
2023/02/20 09:23:45;;;;;;;;;9.25;8.00;;;;;24.21;38.87;102202.63;5030103;28;58563;-75
2023/02/20 09:26:11;;;;;;;;;10.50;7.75;;;;;24.36;38.51;102204.34;5050975;27;66955;-81
2023/02/20 09:28:36;;;;;;;;;11.00;7.75;;;;;24.54;38.11;102210.41;5039314;27;63227;-82
2023/02/20 09:31:02;;;;;;;;;14.25;9.00;;;;;24.70;37.99;102220.13;5018395;27;45428;-75
2023/02/20 09:33:28;;;;;;;;;8.75;7.00;;;;;24.82;37.96;102214.00;5046370;27;45844;-79
2023/02/20 09:35:54;;;;;;;;;9.50;9.00;;;;;24.92;37.45;102208.94;5032439;28;45313;-79
2023/02/20 09:38:25;;;;;;;;;10.25;7.50;;;;;25.06;37.56;102216.06;5038947;27;45271;-79
2023/02/20 09:40:53;;;;;;;;;17.50;8.75;;;;;25.15;37.08;102200.25;5034990;27;45326;-78
2023/02/20 09:43:22;;;;;;;;;8.75;7.00;;;;;25.30;37.03;102211.81;5037357;28;47680;-75
2023/02/20 09:46:14;;;;;;;;;11.25;10.00;;;;;25.48;36.60;102208.84;5039142;27;45514;-82
2023/02/20 09:48:55;;;;;;;;;8.00;7.75;;;;;25.62;36.81;102206.13;5047981;27;45552;-81
2023/02/20 09:51:27;;;;;;;;;11.50;8.75;;;;;25.76;36.21;102202.47;5048623;27;45518;-76
2023/02/20 09:53:58;;;;;;;;;11.50;9.50;;;;;25.89;35.90;102198.00;5027817;28;47354;-80
2023/02/20 09:56:28;;;;;;;;;10.75;8.00;;;;;25.99;36.21;102198.25;5027298;27;46049;-72
2023/02/20 09:59:19;;;;;;;;;12.00;8.50;;;;;26.15;35.90;102206.09;5062030;27;45484;-77
2023/02/20 10:01:59;;;;;;;;;15.75;9.00;;;;;26.24;35.88;102207.28;5030434;27;46006;-78
2023/02/20 10:04:30;;;;;;;;;11.75;10.00;;;;;26.32;35.95;102199.56;5046598;27;47138;-78
2023/02/20 10:07:22;;;;;;;;;15.25;9.25;;;;;26.40;35.34;102190.94;5018256;28;45386;-82
2023/02/20 10:09:47;;;;;;;;;13.50;9.75;;;;;26.52;35.07;102190.06;5037735;27;45394;-82
2023/02/20 10:12:48;;;;;;;;;12.50;8.75;;;;;26.68;35.12;102201.47;5022113;28;45527;-83
2023/02/20 10:15:24;;;;;;;;;17.50;10.00;;;;;26.82;34.78;102205.81;5021186;28;46999;-75
2023/02/20 10:18:05;;;;;;;;;14.00;11.50;;;;;26.92;34.93;102203.34;5018411;27;45807;-78
2023/02/20 10:20:43;;;;;;;;;13.50;11.25;;;;;27.03;34.27;102202.53;5019197;27;45394;-81
2023/02/20 10:23:38;;;;;;;;;14.75;10.75;;;;;27.09;34.18;102194.91;5037206;28;45342;-77
2023/02/20 10:26:07;;;;;;;;;9.75;8.00;;;;;27.16;34.39;102194.41;5035655;27;45484;-79
2023/02/20 10:28:33;;;;;;;;;13.50;9.00;;;;;27.18;34.24;102196.03;5030479;27;45559;-84
2023/02/20 10:31:29;;;;;;;;;11.25;9.50;;;;;27.22;33.58;102199.34;5024597;28;64579;-79
2023/02/20 10:34:05;;;;;;;;;13.50;9.00;;;;;27.23;33.80;102196.56;5033658;27;45378;-86
2023/02/20 10:36:43;;;;;;;;;12.75;9.00;;;;;27.24;33.51;102202.78;5016093;28;46593;-85
2023/02/20 10:39:14;;;;;;;;;11.25;6.25;;;;;27.21;33.75;102192.25;5040245;28;45353;-75
2023/02/20 10:41:58;;;;;;;;;13.75;7.00;;;;;27.24;33.23;102208.16;5024036;27;45453;-75
2023/02/20 10:44:30;;;;;;;;;10.00;10.00;;;;;27.23;33.61;102207.31;5013339;27;45422;-74
2023/02/20 10:47:22;;;;;;;;;13.00;10.00;;;;;27.24;33.00;102208.16;5003228;27;47453;-71
2023/02/20 10:49:57;;;;;;;;;11.50;9.25;;;;;27.23;33.23;102209.13;5016158;27;45737;-78
2023/02/20 10:52:28;;;;;;;;;8.25;7.00;;;;;27.21;33.26;102206.53;5042649;27;45362;-77
2023/02/20 10:54:59;;;;;;;;;13.50;7.75;;;;;27.27;33.51;102202.59;5045480;27;45766;-71
2023/02/20 10:57:30;;;;;;;;;7.75;7.00;;;;;27.28;33.38;102205.13;5005634;27;47698;-78
2023/02/20 11:00:01;;;;;;;;;7.75;7.75;;;;;27.30;32.93;102198.81;5016656;28;45325;-77
2023/02/20 11:02:31;;;;;;;;;6.25;5.75;;;;;27.29;32.91;102192.59;5014405;27;45470;-78
2023/02/20 11:05:00;;;;;;;;;11.75;7.25;;;;;27.30;32.74;102205.03;4987945;27;45252;-84
2023/02/20 11:07:26;;;;;;;;;9.00;7.00;;;;;27.30;32.94;102198.81;5014143;27;46856;-82
2023/02/20 11:09:51;;;;;;;;;8.75;7.50;;;;;27.30;32.93;102196.97;5017839;27;45552;-82
2023/02/20 11:12:25;;;;;;;;;8.00;6.00;;;;;27.30;33.26;102196.97;5037121;28;45318;-82
2023/02/20 11:14:52;;;;;;;;;6.00;5.50;;;;;27.24;32.66;102187.50;5015564;27;45514;-83
2023/02/20 11:17:25;;;;;;;;;6.50;5.25;;;;;27.24;33.04;102189.34;5001604;27;46483;-75
2023/02/20 11:19:56;;;;;;;;;7.75;5.75;;;;;27.24;33.15;102192.03;5002113;27;45398;-73
2023/02/20 11:22:45;;;;;;;;;8.25;6.00;;;;;27.25;33.07;102178.47;5010226;27;45968;-78
2023/02/20 11:25:37;;;;;;;;;7.50;7.50;;;;;27.27;32.99;102176.56;5001393;27;45657;-73
2023/02/20 11:28:19;;;;;;;;;7.50;6.25;;;;;27.36;32.68;102179.53;5016315;27;46211;-80
2023/02/20 11:31:01;;;;;;;;;11.00;8.00;;;;;27.38;32.79;102180.28;5032308;28;44955;-82
2023/02/20 11:33:30;;;;;;;;;7.75;7.25;;;;;27.34;32.46;102168.91;5000788;27;45394;-78
2023/02/20 11:36:17;;;;;;;;;10.25;8.00;;;;;27.39;32.61;102165.84;5047793;27;45760;-76
2023/02/20 11:38:42;;;;;;;;;7.75;7.25;;;;;27.42;32.51;102162.94;5019097;27;45456;-77
2023/02/20 11:41:17;;;;;;;;;4.75;4.50;;;;;27.43;32.06;102161.97;5015835;27;45493;-76
2023/02/20 11:43:44;;;;;;;;;13.25;7.75;;;;;27.42;31.83;102163.78;5028841;28;45376;-76
2023/02/20 11:46:14;;;;;;;;;6.00;6.00;;;;;27.44;32.15;102161.81;5008416;27;46535;-79
2023/02/20 11:49:00;;;;;;;;;12.00;7.50;;;;;27.42;31.90;102158.41;5079954;27;48316;-78
2023/02/20 11:51:31;;;;;;;;;9.00;6.75;;;;;27.41;31.85;102159.41;5003997;27;45452;-74